createdAt,value
2017-11-04T00:00:29.348Z,2.34
2017-11-04T00:01:38.675Z,2.36
2017-11-04T00:02:48.002Z,2.41
2017-11-04T00:03:57.232Z,2.48
2017-11-04T00:05:06.547Z,2.60
2017-11-04T00:06:15.846Z,2.72
2017-11-04T00:07:25.201Z,2.78
2017-11-04T00:08:34.424Z,2.72
2017-11-04T00:09:43.712Z,2.68
2017-11-04T00:10:53.334Z,2.60
2017-11-04T00:12:02.403Z,2.52
2017-11-04T00:13:11.628Z,2.47
2017-11-04T00:14:21.464Z,2.43
2017-11-04T00:15:30.306Z,2.45
2017-11-04T00:16:39.602Z,2.41
2017-11-04T00:17:48.828Z,2.35
2017-11-04T00:18:58.125Z,2.29
2017-11-04T00:20:07.498Z,2.29
2017-11-04T00:21:16.803Z,2.26
2017-11-04T00:22:26.025Z,2.24
2017-11-04T00:23:35.352Z,2.18
2017-11-04T00:24:44.619Z,2.20
2017-11-04T00:25:53.936Z,2.29
2017-11-04T00:27:03.226Z,2.27
2017-11-04T00:28:12.554Z,2.26
2017-11-04T00:29:21.952Z,2.26
2017-11-04T00:30:31.128Z,2.26
2017-11-04T00:31:40.400Z,2.24
2017-11-04T00:32:49.720Z,2.25
2017-11-04T00:33:59.076Z,2.36
2017-11-04T00:35:08.402Z,2.50
2017-11-04T00:36:17.593Z,2.61
2017-11-04T00:37:26.952Z,2.73
2017-11-04T00:38:36.276Z,2.81
2017-11-04T00:39:45.511Z,2.89
2017-11-04T00:40:54.810Z,2.82
2017-11-04T00:42:04.151Z,2.76
2017-11-04T00:43:13.385Z,2.69
2017-11-04T00:44:22.702Z,2.63
2017-11-04T00:45:32.043Z,2.57
2017-11-04T00:46:41.298Z,2.66
2017-11-04T00:47:50.678Z,2.71
2017-11-04T00:48:59.903Z,2.73
2017-11-04T00:50:09.228Z,2.73
2017-11-04T00:51:18.568Z,2.73
2017-11-04T00:52:27.877Z,2.76
2017-11-04T00:53:37.100Z,2.72
2017-11-04T00:54:46.433Z,2.72
2017-11-04T00:55:55.724Z,2.73
2017-11-04T00:57:05.004Z,2.65
2017-11-04T00:58:14.304Z,2.58
2017-11-04T00:59:23.628Z,2.52
2017-11-04T01:00:33.426Z,2.51
2017-11-04T01:01:42.279Z,2.49
2017-11-04T01:02:51.603Z,2.48
2017-11-04T01:04:00.833Z,2.48
2017-11-04T01:05:10.127Z,2.50
2017-11-04T01:06:19.453Z,2.51
2017-11-04T01:07:28.735Z,2.54
2017-11-04T01:08:38.130Z,2.51
2017-11-04T01:09:47.352Z,2.50
2017-11-04T01:10:56.662Z,2.47
2017-11-04T01:12:06.080Z,2.44
2017-11-04T01:13:15.240Z,2.44
2017-11-04T01:14:24.552Z,2.42
2017-11-04T01:15:33.902Z,2.41
2017-11-04T01:16:43.153Z,2.39
2017-11-04T01:17:52.530Z,2.36
2017-11-04T01:19:02.779Z,2.35
2017-11-04T01:20:11.154Z,2.39
2017-11-04T01:21:20.421Z,2.41
2017-11-04T01:22:29.730Z,2.39
2017-11-04T01:23:38.960Z,2.34
2017-11-04T01:24:48.350Z,2.32
2017-11-04T01:25:57.567Z,2.30
2017-11-04T01:27:06.845Z,2.32
2017-11-04T01:28:16.156Z,2.28
2017-11-04T01:29:25.481Z,2.26
2017-11-04T01:30:34.996Z,2.24
2017-11-04T01:31:44.045Z,2.29
2017-11-04T01:32:53.356Z,2.35
2017-11-04T01:34:02.631Z,2.44
2017-11-04T01:35:13.032Z,2.44
2017-11-04T01:36:21.346Z,2.36
2017-11-04T01:37:30.552Z,2.34
2017-11-04T01:38:39.832Z,2.35
2017-11-04T01:39:49.204Z,2.39
2017-11-04T01:40:58.457Z,2.42
2017-11-04T01:42:07.753Z,2.38
2017-11-04T01:43:17.078Z,2.33
2017-11-04T01:44:27.329Z,2.32
2017-11-04T01:45:35.657Z,2.33
2017-11-04T01:46:45.924Z,2.29
2017-11-04T01:47:54.280Z,2.28
2017-11-04T01:49:04.526Z,2.26
2017-11-04T01:50:12.930Z,2.14
2017-11-04T01:51:22.176Z,2.00
2017-11-04T01:52:31.432Z,1.97
2017-11-04T01:53:40.805Z,1.97
2017-11-04T01:54:50.131Z,2.04
2017-11-04T01:55:59.539Z,2.17
2017-11-04T01:57:08.678Z,2.05
2017-11-04T01:58:18.007Z,1.97
2017-11-04T01:59:27.227Z,1.91
2017-11-04T02:00:36.577Z,1.85
2017-11-04T02:01:45.808Z,1.79
2017-11-04T02:02:55.093Z,1.83
2017-11-04T02:04:04.430Z,1.90
2017-11-04T02:05:13.681Z,1.90
2017-11-04T02:06:23.101Z,1.79
2017-11-04T02:07:32.265Z,1.74
2017-11-04T02:08:41.628Z,1.75
2017-11-04T02:09:50.956Z,1.77
2017-11-04T02:11:00.194Z,1.67
2017-11-04T02:12:09.504Z,1.61
2017-11-04T02:13:18.731Z,1.58
2017-11-04T02:14:28.020Z,1.60
2017-11-04T02:15:37.329Z,1.74
2017-11-04T02:16:46.599Z,1.74
2017-11-04T02:17:55.925Z,1.65
2017-11-04T02:19:05.179Z,1.61
2017-11-04T02:20:14.476Z,1.66
2017-11-04T02:21:23.819Z,1.69
2017-11-04T02:22:33.126Z,1.60
2017-11-04T02:23:42.328Z,1.51
2017-11-04T02:24:51.645Z,1.58
2017-11-04T02:26:01.185Z,1.70
2017-11-04T02:27:10.226Z,1.78
2017-11-04T02:28:19.552Z,1.71
2017-11-04T02:29:28.782Z,1.66
2017-11-04T02:30:38.061Z,1.62
2017-11-04T02:31:47.438Z,1.62
2017-11-04T02:32:56.648Z,1.69
2017-11-04T02:34:05.942Z,1.83
2017-11-04T02:35:15.304Z,2.01
2017-11-04T02:36:24.705Z,2.13
2017-11-04T02:37:33.847Z,2.08
2017-11-04T02:38:43.075Z,2.00
2017-11-04T02:39:52.408Z,1.90
2017-11-04T02:41:01.739Z,1.79
2017-11-04T02:42:10.948Z,1.70
2017-11-04T02:43:20.272Z,1.70
2017-11-04T02:44:29.509Z,1.73
2017-11-04T02:45:38.784Z,1.75
2017-11-04T02:46:48.330Z,1.66
2017-11-04T02:47:57.354Z,1.61
2017-11-04T02:49:06.645Z,1.65
2017-11-04T02:50:15.923Z,1.72
2017-11-04T02:51:25.234Z,1.78
2017-11-04T02:52:34.572Z,1.76
2017-11-04T02:53:43.794Z,1.78
2017-11-04T02:54:53.120Z,1.80
2017-11-04T02:56:02.464Z,1.83
2017-11-04T02:57:11.646Z,1.85
2017-11-04T02:58:20.992Z,1.91
2017-11-04T02:59:30.321Z,1.96
2017-11-04T03:00:39.514Z,2.00
2017-11-04T03:01:48.828Z,1.97
2017-11-04T03:02:58.097Z,2.00
2017-11-04T03:04:07.416Z,2.06
2017-11-04T03:05:16.674Z,2.05
2017-11-04T03:06:26.149Z,2.00
2017-11-04T03:07:35.288Z,1.95
2017-11-04T03:08:44.526Z,1.88
2017-11-04T03:09:53.817Z,1.84
2017-11-04T03:11:03.183Z,1.86
2017-11-04T03:12:12.490Z,1.91
2017-11-04T03:13:21.676Z,1.95
2017-11-04T03:14:31.962Z,1.95
2017-11-04T03:15:40.271Z,1.92
2017-11-04T03:16:49.573Z,1.95
2017-11-04T03:17:59.838Z,1.95
2017-11-04T03:19:08.155Z,2.01
2017-11-04T03:20:17.428Z,2.14
2017-11-04T03:21:26.738Z,2.26
2017-11-04T03:22:37.022Z,2.24
2017-11-04T03:23:45.301Z,2.16
2017-11-04T03:24:54.663Z,2.14
2017-11-04T03:26:04.419Z,2.09
2017-11-04T03:27:13.178Z,2.06
2017-11-04T03:28:22.480Z,2.06
2017-11-04T03:29:31.863Z,2.03
2017-11-04T03:30:41.062Z,2.08
2017-11-04T03:31:50.429Z,2.19
2017-11-04T03:32:59.737Z,2.18
2017-11-04T03:34:08.939Z,2.17
2017-11-04T03:35:18.251Z,2.17
2017-11-04T03:36:27.631Z,2.20
2017-11-04T03:37:36.837Z,2.23
2017-11-04T03:38:46.161Z,2.24
2017-11-04T03:39:56.509Z,2.23
2017-11-04T03:41:04.829Z,2.19
2017-11-04T03:42:14.112Z,2.20
2017-11-04T03:43:23.365Z,2.20
2017-11-04T03:44:32.764Z,2.19
2017-11-04T03:45:41.912Z,2.15
2017-11-04T03:46:51.422Z,2.16
2017-11-04T03:48:00.500Z,2.21
2017-11-04T03:49:09.797Z,2.28
2017-11-04T03:50:19.082Z,2.30
2017-11-04T03:51:28.402Z,2.29
2017-11-04T03:52:37.837Z,2.29
2017-11-04T03:53:47.499Z,2.27
2017-11-04T03:54:56.272Z,2.28
2017-11-04T03:56:05.636Z,2.26
2017-11-04T03:57:14.961Z,2.28
2017-11-04T03:58:24.184Z,2.35
2017-11-04T03:59:33.511Z,2.41
2017-11-04T04:00:42.768Z,2.44
2017-11-04T04:01:52.089Z,2.39
2017-11-04T04:03:01.356Z,2.38
2017-11-04T04:04:10.657Z,2.40
2017-11-04T04:05:20.036Z,2.45
2017-11-04T04:06:29.272Z,2.54
2017-11-04T04:07:38.584Z,2.65
2017-11-04T04:08:47.872Z,2.73
2017-11-04T04:09:57.148Z,2.71
2017-11-04T04:11:06.460Z,2.72
2017-11-04T04:12:15.809Z,2.82
2017-11-04T04:13:25.118Z,2.98
2017-11-04T04:14:34.438Z,3.05
2017-11-04T04:15:43.765Z,3.14
2017-11-04T04:16:53.007Z,3.17
2017-11-04T04:18:02.319Z,3.31
2017-11-04T04:19:11.635Z,3.42
2017-11-04T04:20:20.902Z,3.52
2017-11-04T04:21:31.239Z,3.52
2017-11-04T04:22:39.615Z,3.52
2017-11-04T04:23:48.852Z,3.56
2017-11-04T04:24:58.268Z,3.65
2017-11-04T04:26:07.492Z,3.68
2017-11-04T04:27:16.832Z,3.79
2017-11-04T04:28:26.215Z,3.97
2017-11-04T04:29:35.467Z,4.05
2017-11-04T04:30:44.798Z,4.09
2017-11-04T04:31:54.116Z,4.15
2017-11-04T04:33:03.441Z,4.21
2017-11-04T04:34:12.768Z,4.21
2017-11-04T04:35:22.097Z,4.21
2017-11-04T04:36:31.448Z,4.28
2017-11-04T04:37:40.848Z,4.28
2017-11-04T04:38:50.101Z,4.30
2017-11-04T04:39:59.464Z,4.30
2017-11-04T04:41:08.786Z,4.28
2017-11-04T04:42:18.178Z,4.21
2017-11-04T04:43:27.580Z,4.17
2017-11-04T04:44:36.903Z,4.11
2017-11-04T04:45:46.230Z,4.13
2017-11-04T04:46:55.523Z,4.19
2017-11-04T04:48:04.880Z,4.26
2017-11-04T04:49:14.208Z,4.28
2017-11-04T04:50:23.545Z,4.36
2017-11-04T04:51:32.924Z,4.32
2017-11-04T04:52:42.246Z,4.25
2017-11-04T04:53:51.613Z,4.19
2017-11-04T04:55:01.117Z,4.11
2017-11-04T04:56:10.363Z,4.05
2017-11-04T04:57:19.665Z,3.99
2017-11-04T04:58:29.097Z,3.99
2017-11-04T04:59:38.345Z,4.03
2017-11-04T05:00:47.921Z,4.09
2017-11-04T05:01:57.282Z,4.05
2017-11-04T05:03:06.380Z,3.95
2017-11-04T05:04:15.824Z,3.84
2017-11-04T05:05:25.075Z,3.89
2017-11-04T05:06:34.517Z,3.96
2017-11-04T05:07:43.758Z,4.15
2017-11-04T05:08:53.122Z,4.34
2017-11-04T05:10:02.479Z,4.30
2017-11-04T05:11:11.807Z,4.21
2017-11-04T05:12:21.151Z,4.21
2017-11-04T05:13:30.460Z,4.19
2017-11-04T05:14:39.880Z,4.28
2017-11-04T05:15:49.516Z,4.36
2017-11-04T05:16:58.517Z,4.36
2017-11-04T05:18:07.836Z,4.44
2017-11-04T05:19:17.188Z,4.57
2017-11-04T05:20:26.613Z,4.59
2017-11-04T05:21:35.893Z,4.73
2017-11-04T05:22:45.265Z,4.79
2017-11-04T05:23:54.565Z,4.88
2017-11-04T05:25:03.918Z,4.88
2017-11-04T05:26:13.272Z,4.92
2017-11-04T05:27:22.685Z,4.92
2017-11-04T05:28:32.070Z,4.88
2017-11-04T05:29:41.423Z,4.84
2017-11-04T05:30:50.750Z,4.73
2017-11-04T05:32:00.090Z,4.67
2017-11-04T05:33:09.399Z,4.71
2017-11-04T05:34:18.827Z,4.80
2017-11-04T05:35:28.665Z,4.88
2017-11-04T05:36:37.867Z,4.90
2017-11-04T05:37:47.830Z,4.90
2017-11-04T05:38:56.234Z,4.86
2017-11-04T05:40:05.566Z,4.84
2017-11-04T05:41:14.984Z,4.86
2017-11-04T05:42:24.334Z,4.88
2017-11-04T05:43:33.740Z,4.90
2017-11-04T05:44:43.067Z,4.92
2017-11-04T05:45:52.393Z,4.92
2017-11-04T05:47:01.835Z,4.90
2017-11-04T05:48:11.097Z,4.90
2017-11-04T05:49:20.472Z,4.96
2017-11-04T05:50:29.824Z,4.98
2017-11-04T05:51:39.211Z,4.98
2017-11-04T05:52:48.560Z,5.00
2017-11-04T05:53:57.917Z,5.03
2017-11-04T05:55:07.380Z,5.09
2017-11-04T05:56:16.732Z,5.11
2017-11-04T05:57:26.041Z,5.09
2017-11-04T05:58:35.484Z,5.07
2017-11-04T05:59:44.814Z,5.09
2017-11-04T06:00:54.138Z,5.03
2017-11-04T06:02:03.513Z,5.01
2017-11-04T06:03:12.865Z,5.00
2017-11-04T06:04:22.322Z,4.92
2017-11-04T06:05:31.649Z,4.86
2017-11-04T06:06:41.282Z,4.84
2017-11-04T06:07:50.341Z,4.80
2017-11-04T06:08:59.803Z,4.77
2017-11-04T06:10:09.085Z,4.76
2017-11-04T06:11:18.475Z,4.71
2017-11-04T06:12:27.923Z,4.69
2017-11-04T06:13:37.187Z,4.69
2017-11-04T06:14:46.562Z,4.71
2017-11-04T06:15:55.986Z,4.82
2017-11-04T06:17:05.403Z,4.86
2017-11-04T06:18:14.737Z,4.86
2017-11-04T06:19:24.065Z,4.88
2017-11-04T06:20:33.392Z,4.86
2017-11-04T06:21:42.816Z,4.84
2017-11-04T06:22:52.346Z,4.80
2017-11-04T06:24:01.502Z,4.73
2017-11-04T06:25:10.896Z,4.67
2017-11-04T06:26:20.236Z,4.67
2017-11-04T06:27:29.907Z,4.65
2017-11-04T06:28:38.980Z,4.63
2017-11-04T06:29:48.403Z,4.61
2017-11-04T06:30:57.715Z,4.65
2017-11-04T06:32:07.685Z,4.65
2017-11-04T06:33:16.484Z,4.61
2017-11-04T06:34:26.835Z,4.61
2017-11-04T06:35:35.236Z,4.61
2017-11-04T06:36:44.592Z,4.63
2017-11-04T06:37:53.974Z,4.67
2017-11-04T06:39:03.418Z,4.65
2017-11-04T06:40:12.822Z,4.65
2017-11-04T06:41:22.070Z,4.65
2017-11-04T06:42:31.649Z,4.63
2017-11-04T06:43:40.829Z,4.67
2017-11-04T06:44:51.174Z,4.67
2017-11-04T06:45:59.550Z,4.73
2017-11-04T06:47:08.943Z,4.75
2017-11-04T06:48:18.407Z,4.80
2017-11-04T06:49:27.675Z,4.80
2017-11-04T06:50:37.053Z,4.84
2017-11-04T06:51:46.512Z,4.88
2017-11-04T06:52:56.366Z,4.92
2017-11-04T06:54:05.678Z,4.98
2017-11-04T06:55:14.592Z,5.01
2017-11-04T06:56:24.020Z,5.05
2017-11-04T06:57:33.529Z,5.00
2017-11-04T06:58:42.687Z,4.96
2017-11-04T06:59:52.101Z,4.90
2017-11-04T07:01:01.439Z,4.90
2017-11-04T07:02:10.844Z,4.96
2017-11-04T07:03:21.205Z,5.05
2017-11-04T07:04:29.610Z,5.15
2017-11-04T07:05:38.981Z,5.19
2017-11-04T07:06:48.463Z,5.26
2017-11-04T07:07:57.778Z,5.36
2017-11-04T07:09:08.140Z,5.46
2017-11-04T07:10:16.547Z,5.55
2017-11-04T07:11:26.046Z,5.61
2017-11-04T07:12:35.417Z,5.65
2017-11-04T07:13:44.729Z,5.69
2017-11-04T07:14:54.103Z,5.73
2017-11-04T07:16:03.509Z,5.73
2017-11-04T07:17:12.926Z,5.80
2017-11-04T07:18:22.343Z,5.82
2017-11-04T07:19:31.692Z,5.84
2017-11-04T07:20:41.097Z,5.84
2017-11-04T07:21:50.518Z,5.84
2017-11-04T07:22:59.962Z,5.84
2017-11-04T07:24:09.370Z,5.84
2017-11-04T07:25:18.701Z,5.86
2017-11-04T07:26:28.126Z,5.86
2017-11-04T07:27:38.054Z,5.90
2017-11-04T07:28:47.905Z,5.94
2017-11-04T07:29:56.411Z,5.94
2017-11-04T07:31:05.735Z,6.00
2017-11-04T07:32:15.183Z,6.05
2017-11-04T07:33:24.551Z,6.09
2017-11-04T07:34:34.022Z,6.11
2017-11-04T07:35:43.450Z,6.15
2017-11-04T07:36:52.789Z,6.17
2017-11-04T07:38:02.218Z,6.23
2017-11-04T07:39:11.629Z,6.26
2017-11-04T07:40:21.001Z,6.30
2017-11-04T07:41:30.420Z,6.34
2017-11-04T07:42:40.214Z,6.34
2017-11-04T07:43:49.750Z,6.32
2017-11-04T07:44:58.767Z,6.34
2017-11-04T07:46:08.684Z,6.36
2017-11-04T07:47:17.521Z,6.42
2017-11-04T07:48:26.919Z,6.48
2017-11-04T07:49:36.394Z,6.48
2017-11-04T07:50:45.767Z,6.53
2017-11-04T07:51:55.185Z,6.59
2017-11-04T07:53:04.921Z,6.63
2017-11-04T07:54:14.058Z,6.67
2017-11-04T07:55:23.467Z,6.73
2017-11-04T07:56:32.946Z,6.80
2017-11-04T07:57:42.347Z,6.88
2017-11-04T07:58:51.804Z,6.94
2017-11-04T08:00:01.230Z,7.03
2017-11-04T08:01:10.660Z,7.11
2017-11-04T08:02:20.089Z,7.21
2017-11-04T08:03:29.722Z,7.32
2017-11-04T08:04:39.044Z,7.40
2017-11-04T08:05:48.405Z,7.44
2017-11-04T08:06:57.841Z,7.46
2017-11-04T08:08:07.345Z,7.50
2017-11-04T08:09:16.762Z,7.55
2017-11-04T08:10:26.186Z,7.63
2017-11-04T08:11:35.635Z,7.61
2017-11-04T08:12:45.162Z,7.63
2017-11-04T08:13:54.573Z,7.65
2017-11-04T08:15:04.002Z,7.71
2017-11-04T08:16:13.531Z,7.71
2017-11-04T08:17:22.974Z,7.75
2017-11-04T08:18:32.353Z,7.79
2017-11-04T08:19:41.821Z,7.80
2017-11-04T08:20:51.345Z,7.86
2017-11-04T08:22:00.772Z,7.92
2017-11-04T08:23:10.226Z,7.98
2017-11-04T08:24:20.219Z,8.01
2017-11-04T08:25:30.088Z,8.02
2017-11-04T08:26:38.682Z,8.03
2017-11-04T08:27:48.136Z,8.09
2017-11-04T08:28:57.622Z,8.10
2017-11-04T08:30:07.051Z,8.14
2017-11-04T08:31:16.508Z,8.18
2017-11-04T08:32:26.009Z,8.22
2017-11-04T08:33:35.392Z,8.27
2017-11-04T08:34:44.825Z,8.28
2017-11-04T08:35:54.325Z,8.31
2017-11-04T08:37:03.853Z,8.31
2017-11-04T08:38:13.469Z,8.34
2017-11-04T08:39:22.712Z,8.35
2017-11-04T08:40:32.235Z,8.39
2017-11-04T08:41:41.670Z,8.35
2017-11-04T08:42:51.205Z,8.38
2017-11-04T08:44:00.638Z,8.38
2017-11-04T08:45:10.089Z,8.39
2017-11-04T08:46:19.581Z,8.39
2017-11-04T08:47:29.112Z,8.40
2017-11-04T08:48:38.546Z,8.43
2017-11-04T08:49:48.013Z,8.48
2017-11-04T08:50:57.502Z,8.53
2017-11-04T08:52:06.970Z,8.60
2017-11-04T08:53:16.746Z,8.68
2017-11-04T08:54:25.942Z,8.77
2017-11-04T08:55:35.451Z,8.82
2017-11-04T08:56:45.021Z,8.85
2017-11-04T08:57:54.419Z,8.85
2017-11-04T08:59:03.933Z,8.85
2017-11-04T09:00:13.435Z,8.82
2017-11-04T09:01:22.965Z,8.82
2017-11-04T09:02:32.401Z,8.85
2017-11-04T09:03:41.940Z,8.89
2017-11-04T09:04:51.383Z,8.93
2017-11-04T09:06:00.886Z,8.93
2017-11-04T09:07:10.412Z,8.90
2017-11-04T09:08:20.020Z,8.90
2017-11-04T09:09:29.399Z,8.93
2017-11-04T09:10:38.867Z,8.90
2017-11-04T09:11:48.431Z,8.93
2017-11-04T09:12:57.960Z,8.96
2017-11-04T09:14:07.412Z,8.96
2017-11-04T09:15:16.866Z,8.94
2017-11-04T09:16:26.450Z,9.00
2017-11-04T09:17:35.865Z,9.02
2017-11-04T09:18:45.409Z,9.03
2017-11-04T09:19:54.956Z,9.07
2017-11-04T09:21:04.372Z,9.13
2017-11-04T09:22:13.901Z,9.15
2017-11-04T09:23:23.370Z,9.17
2017-11-04T09:24:32.976Z,9.18
2017-11-04T09:25:42.388Z,9.15
2017-11-04T09:26:51.918Z,9.10
2017-11-04T09:28:01.382Z,9.09
2017-11-04T09:29:10.978Z,9.07
2017-11-04T09:30:20.405Z,9.10
2017-11-04T09:31:29.903Z,9.10
2017-11-04T09:32:39.469Z,9.10
2017-11-04T09:33:48.887Z,9.13
2017-11-04T09:34:58.445Z,9.15
2017-11-04T09:36:07.893Z,9.15
2017-11-04T09:37:17.487Z,9.18
2017-11-04T09:38:26.885Z,9.21
2017-11-04T09:39:36.398Z,9.26
2017-11-04T09:40:45.995Z,9.27
2017-11-04T09:41:55.406Z,9.31
2017-11-04T09:43:04.934Z,9.35
2017-11-04T09:44:14.415Z,9.38
2017-11-04T09:45:24.012Z,9.39
2017-11-04T09:46:33.525Z,9.47
2017-11-04T09:47:42.930Z,9.53
2017-11-04T09:48:52.999Z,9.60
2017-11-04T09:50:02.199Z,9.67
2017-11-04T09:51:11.545Z,9.71
2017-11-04T09:52:21.076Z,9.71
2017-11-04T09:53:30.518Z,9.73
2017-11-04T09:54:40.134Z,9.73
2017-11-04T09:55:49.593Z,9.79
2017-11-04T09:56:59.100Z,9.77
2017-11-04T09:58:08.599Z,9.79
2017-11-04T09:59:18.676Z,9.85
2017-11-04T10:00:27.703Z,9.88
2017-11-04T10:01:37.215Z,9.93
2017-11-04T10:02:46.719Z,10.06
2017-11-04T10:03:56.353Z,10.11
2017-11-04T10:05:05.809Z,10.17
2017-11-04T10:06:15.359Z,10.17
2017-11-04T10:07:24.867Z,10.14
2017-11-04T10:08:34.396Z,10.15
2017-11-04T10:09:44.030Z,10.19
2017-11-04T10:10:53.578Z,10.22
2017-11-04T10:12:03.021Z,10.44
2017-11-04T10:13:12.622Z,10.67
2017-11-04T10:14:22.153Z,10.72
2017-11-04T10:15:31.684Z,10.68
2017-11-04T10:16:41.246Z,10.67
2017-11-04T10:17:50.846Z,10.85
2017-11-04T10:19:00.454Z,10.96
2017-11-04T10:20:10.015Z,10.85
2017-11-04T10:21:19.725Z,10.80
2017-11-04T10:22:29.071Z,10.72
2017-11-04T10:23:38.604Z,10.64
2017-11-04T10:24:48.166Z,10.63
2017-11-04T10:25:57.714Z,10.61
2017-11-04T10:27:07.318Z,10.69
2017-11-04T10:28:17.006Z,10.76
2017-11-04T10:29:26.428Z,10.85
2017-11-04T10:30:35.992Z,10.93
2017-11-04T10:31:45.805Z,11.05
2017-11-04T10:32:55.105Z,11.14
2017-11-04T10:34:04.786Z,11.40
2017-11-04T10:35:14.265Z,11.81
2017-11-04T10:36:24.133Z,12.06
2017-11-04T10:37:33.482Z,12.35
2017-11-04T10:38:43.116Z,12.67
2017-11-04T10:39:52.718Z,12.89
2017-11-04T10:41:02.379Z,13.06
2017-11-04T10:42:13.051Z,13.15
2017-11-04T10:43:21.744Z,12.90
2017-11-04T10:44:31.291Z,12.63
2017-11-04T10:45:40.942Z,12.67
2017-11-04T10:46:50.614Z,12.50
2017-11-04T10:48:00.238Z,12.31
2017-11-04T10:49:09.876Z,12.18
2017-11-04T10:50:19.511Z,12.18
2017-11-04T10:51:29.143Z,12.22
2017-11-04T10:52:38.805Z,12.17
2017-11-04T10:53:48.443Z,12.23
2017-11-04T10:54:58.078Z,12.40
2017-11-04T10:56:07.708Z,12.57
2017-11-04T10:57:17.347Z,12.68
2017-11-04T10:58:26.978Z,12.92
2017-11-04T10:59:36.613Z,13.10
2017-11-04T11:00:46.341Z,12.97
2017-11-04T11:01:55.934Z,12.81
2017-11-04T11:03:05.684Z,12.85
2017-11-04T11:04:15.238Z,13.01
2017-11-04T11:05:24.975Z,13.10
2017-11-04T11:06:34.552Z,13.07
2017-11-04T11:07:44.936Z,13.06
2017-11-04T11:08:54.494Z,13.10
2017-11-04T11:10:04.131Z,13.02
2017-11-04T11:11:13.253Z,12.92
2017-11-04T11:12:22.996Z,12.64
2017-11-04T11:13:32.609Z,12.40
2017-11-04T11:14:42.241Z,12.22
2017-11-04T11:15:51.877Z,12.17
2017-11-04T11:17:01.520Z,12.21
2017-11-04T11:18:11.177Z,12.46
2017-11-04T11:19:20.807Z,12.92
2017-11-04T11:20:30.507Z,13.14
2017-11-04T11:21:40.216Z,12.98
2017-11-04T11:22:49.807Z,13.05
2017-11-04T11:23:59.941Z,13.43
2017-11-04T11:25:09.121Z,13.84
2017-11-04T11:26:18.879Z,14.03
2017-11-04T11:27:28.613Z,14.28
2017-11-04T11:28:38.506Z,14.48
2017-11-04T11:29:47.969Z,14.43
2017-11-04T11:30:57.730Z,14.18
2017-11-04T11:32:07.452Z,13.82
2017-11-04T11:33:17.203Z,13.43
2017-11-04T11:34:26.884Z,13.13
2017-11-04T11:35:36.662Z,12.90
2017-11-04T11:36:46.297Z,12.73
2017-11-04T11:37:56.054Z,12.60
2017-11-04T11:39:05.702Z,12.36
2017-11-04T11:40:15.396Z,12.34
2017-11-04T11:41:25.130Z,12.27
2017-11-04T11:42:34.969Z,12.19
2017-11-04T11:43:44.520Z,12.17
2017-11-04T11:44:54.131Z,12.21
2017-11-04T11:46:03.793Z,12.23
2017-11-04T11:47:13.520Z,12.21
2017-11-04T11:48:23.166Z,12.22
2017-11-04T11:49:32.806Z,12.26
2017-11-04T11:50:43.092Z,12.22
2017-11-04T11:51:52.257Z,12.27
2017-11-04T11:53:01.904Z,12.32
2017-11-04T11:54:11.505Z,12.30
2017-11-04T11:55:21.133Z,12.31
2017-11-04T11:56:30.765Z,12.22
2017-11-04T11:57:40.402Z,12.21
2017-11-04T11:58:50.068Z,12.21
2017-11-04T11:59:59.766Z,12.23
2017-11-04T12:01:09.316Z,12.28
2017-11-04T12:02:19.036Z,12.35
2017-11-04T12:03:29.820Z,12.44
2017-11-04T12:04:38.268Z,12.61
2017-11-04T12:05:47.882Z,12.76
2017-11-04T12:06:57.570Z,12.89
2017-11-04T12:08:07.298Z,12.90
2017-11-04T12:09:16.845Z,12.88
2017-11-04T12:10:26.584Z,12.89
2017-11-04T12:11:36.138Z,12.85
2017-11-04T12:12:45.787Z,12.84
2017-11-04T12:13:55.646Z,12.81
2017-11-04T12:15:05.096Z,12.80
2017-11-04T12:16:14.734Z,12.77
2017-11-04T12:17:24.539Z,12.85
2017-11-04T12:18:34.029Z,12.88
2017-11-04T12:19:43.661Z,12.97
2017-11-04T12:20:53.370Z,13.01
2017-11-04T12:22:02.996Z,13.05
2017-11-04T12:23:12.847Z,13.06
2017-11-04T12:24:22.226Z,13.10
2017-11-04T12:25:31.902Z,13.15
2017-11-04T12:26:41.503Z,13.17
2017-11-04T12:27:51.165Z,13.18
2017-11-04T12:29:00.910Z,13.21
2017-11-04T12:30:10.526Z,13.23
2017-11-04T12:31:20.070Z,13.31
2017-11-04T12:32:29.708Z,13.27
2017-11-04T12:33:39.441Z,13.25
2017-11-04T12:34:49.062Z,13.25
2017-11-04T12:35:58.637Z,13.21
2017-11-04T12:37:08.275Z,13.21
2017-11-04T12:38:18.490Z,13.22
2017-11-04T12:39:27.575Z,13.23
2017-11-04T12:40:37.222Z,13.22
2017-11-04T12:41:46.958Z,13.25
2017-11-04T12:42:56.678Z,13.30
2017-11-04T12:44:06.244Z,13.35
2017-11-04T12:45:15.839Z,13.42
2017-11-04T12:46:25.592Z,13.46
2017-11-04T12:47:35.170Z,13.56
2017-11-04T12:48:44.863Z,13.61
2017-11-04T12:49:54.668Z,13.72
2017-11-04T12:51:04.230Z,13.82
2017-11-04T12:52:14.393Z,13.82
2017-11-04T12:53:23.607Z,13.82
2017-11-04T12:54:33.327Z,13.77
2017-11-04T12:55:43.004Z,13.75
2017-11-04T12:56:52.725Z,13.67
2017-11-04T12:58:02.444Z,13.71
2017-11-04T12:59:12.196Z,13.75
2017-11-04T13:00:21.838Z,13.72
2017-11-04T13:01:31.571Z,13.77
2017-11-04T13:02:41.383Z,13.68
2017-11-04T13:03:51.080Z,13.60
2017-11-04T13:05:00.850Z,13.56
2017-11-04T13:06:10.550Z,13.51
2017-11-04T13:07:20.292Z,13.55
2017-11-04T13:08:30.591Z,13.60
2017-11-04T13:09:39.962Z,13.68
2017-11-04T13:10:50.145Z,13.72
2017-11-04T13:11:59.412Z,13.80
2017-11-04T13:13:09.235Z,13.86
2017-11-04T13:14:19.053Z,13.97
2017-11-04T13:15:28.842Z,14.06
2017-11-04T13:16:38.668Z,14.05
2017-11-04T13:17:48.547Z,13.97
2017-11-04T13:18:58.338Z,13.97
2017-11-04T13:20:08.117Z,13.94
2017-11-04T13:21:17.961Z,13.93
2017-11-04T13:22:28.305Z,13.97
2017-11-04T13:23:37.916Z,14.02
2017-11-04T13:24:47.320Z,14.02
2017-11-04T13:25:57.112Z,14.02
2017-11-04T13:27:07.013Z,13.96
2017-11-04T13:28:16.777Z,13.94
2017-11-04T15:38:44.343Z,11.82
2017-11-04T15:39:56.652Z,11.72
2017-11-04T15:41:06.216Z,11.61
2017-11-04T15:42:15.796Z,11.53
2017-11-04T15:43:25.419Z,11.47
2017-11-04T15:44:35.626Z,11.39
2017-11-04T15:45:45.097Z,11.32
2017-11-04T15:46:54.100Z,11.27
2017-11-04T15:48:04.155Z,11.21
2017-11-04T15:49:14.058Z,11.15
2017-11-04T15:50:24.514Z,11.06
2017-11-04T15:51:32.928Z,11.01
2017-11-04T15:52:42.075Z,10.98
2017-11-04T15:53:51.669Z,10.93
2017-11-04T15:55:01.148Z,10.88
2017-11-04T15:56:10.735Z,10.85
2017-11-04T15:57:20.871Z,10.89
2017-11-04T15:58:29.694Z,10.89
2017-11-04T15:59:39.277Z,10.93
2017-11-04T16:00:48.885Z,10.97
2017-11-04T16:01:58.522Z,10.98
2017-11-04T16:03:08.012Z,11.07
2017-11-04T16:04:18.083Z,11.09
2017-11-04T16:05:27.021Z,11.13
2017-11-04T16:06:36.912Z,11.14
2017-11-04T16:07:46.683Z,11.15
2017-11-04T16:08:55.707Z,11.18
2017-11-04T16:10:05.213Z,11.19
2017-11-04T16:11:14.828Z,11.22
2017-11-04T16:12:24.298Z,11.22
2017-11-04T16:13:35.838Z,11.23
2017-11-04T16:14:43.990Z,11.23
2017-11-04T16:15:53.766Z,11.22
2017-11-04T16:17:03.103Z,11.18
2017-11-04T16:18:12.123Z,11.14
2017-11-04T16:19:21.698Z,11.10
2017-11-04T16:20:31.624Z,11.07
2017-11-04T16:21:41.329Z,11.03
2017-11-04T16:22:50.278Z,10.97
2017-11-04T16:23:59.839Z,10.93
2017-11-04T16:25:09.440Z,10.88
2017-11-04T16:26:19.483Z,10.86
2017-11-04T16:27:28.909Z,10.84
2017-11-04T16:28:37.935Z,10.81
2017-11-04T16:29:47.986Z,10.80
2017-11-04T16:30:57.609Z,10.79
2017-11-04T16:32:06.535Z,10.76
2017-11-04T16:33:16.084Z,10.69
2017-11-04T16:34:25.695Z,10.68
2017-11-04T16:35:35.213Z,10.60
2017-11-04T16:36:44.747Z,10.55
2017-11-04T16:37:54.270Z,10.52
2017-11-04T16:39:04.376Z,10.44
2017-11-04T16:40:13.347Z,10.38
2017-11-04T16:41:22.972Z,10.31
2017-11-04T16:42:33.115Z,10.28
2017-11-04T16:43:42.451Z,10.27
2017-11-04T16:44:52.916Z,10.25
2017-11-04T16:46:01.059Z,10.18
2017-11-04T16:47:10.933Z,10.18
2017-11-04T16:48:20.121Z,10.14
2017-11-04T16:49:30.529Z,10.14
2017-11-04T16:50:39.108Z,10.15
2017-11-04T16:51:48.700Z,10.10
2017-11-04T16:52:58.241Z,10.09
2017-11-04T16:54:07.793Z,10.10
2017-11-04T16:55:17.650Z,10.05
2017-11-04T16:56:26.662Z,10.02
2017-11-04T16:57:36.185Z,9.98
2017-11-04T16:58:46.229Z,10.03
2017-11-04T16:59:55.946Z,10.02
2017-11-04T17:01:04.726Z,9.96
2017-11-04T17:02:14.832Z,9.93
2017-11-04T17:03:23.852Z,9.89
2017-11-04T17:04:33.902Z,9.88
2017-11-04T17:05:42.903Z,9.88
2017-11-04T17:06:52.427Z,9.88
2017-11-04T17:08:02.373Z,9.88
2017-11-04T17:09:11.386Z,9.84
2017-11-04T17:10:21.895Z,9.79
2017-11-04T17:11:30.524Z,9.79
2017-11-04T17:12:39.940Z,9.77
2017-11-04T17:13:49.442Z,9.77
2017-11-04T17:14:59.574Z,9.76
2017-11-04T17:16:08.568Z,9.75
2017-11-04T17:17:18.175Z,9.77
2017-11-04T17:18:27.504Z,9.77
2017-11-04T17:19:37.240Z,9.77
2017-11-04T17:20:46.531Z,9.80
2017-11-04T17:21:56.052Z,9.81
2017-11-04T17:23:06.063Z,9.84
2017-11-04T17:24:15.066Z,9.82